createdAt,value
2019-03-15T00:00:28.060Z,5.78
2019-03-15T00:03:00.534Z,5.84
2019-03-15T00:05:34.575Z,5.83
2019-03-15T00:08:06.570Z,5.82
2019-03-15T00:10:39.218Z,5.88
2019-03-15T00:13:12.467Z,5.88
2019-03-15T00:15:44.172Z,5.89
2019-03-15T00:18:16.372Z,5.94
2019-03-15T00:20:48.159Z,5.95
2019-03-15T00:23:21.129Z,6.00
2019-03-15T00:25:55.344Z,5.98
2019-03-15T00:28:27.152Z,5.98
2019-03-15T00:30:58.968Z,6.05
2019-03-15T00:33:31.452Z,6.05
2019-03-15T00:36:03.128Z,6.09
2019-03-15T00:38:35.199Z,6.09
2019-03-15T00:41:07.209Z,6.07
2019-03-15T00:43:39.218Z,6.08
2019-03-15T00:46:11.275Z,6.10
2019-03-15T00:48:43.320Z,6.11
2019-03-15T00:51:15.467Z,6.01
2019-03-15T00:53:47.304Z,6.05
2019-03-15T00:56:19.199Z,6.03
2019-03-15T00:58:51.026Z,6.06
2019-03-15T01:01:24.233Z,6.03
2019-03-15T01:03:55.877Z,6.00
2019-03-15T01:06:27.749Z,6.02
2019-03-15T01:08:59.588Z,5.97
2019-03-15T01:11:31.285Z,6.01
2019-03-15T01:14:04.256Z,6.02
2019-03-15T01:16:36.116Z,6.10
2019-03-15T01:19:08.430Z,6.02
2019-03-15T01:21:40.573Z,6.08
2019-03-15T01:24:12.579Z,6.10
2019-03-15T01:26:47.017Z,6.06
2019-03-15T01:29:18.645Z,6.03
2019-03-15T01:31:50.365Z,6.03
2019-03-15T01:34:23.004Z,6.08
2019-03-15T01:36:54.982Z,6.01
2019-03-15T01:39:26.789Z,6.08
2019-03-15T01:41:59.997Z,6.04
2019-03-15T01:44:31.963Z,6.03
2019-03-15T01:47:03.841Z,6.02
2019-03-15T01:49:38.169Z,5.99
2019-03-15T01:52:10.128Z,6.03
2019-03-15T01:54:42.098Z,5.95
2019-03-15T01:57:13.834Z,5.96
2019-03-15T01:59:45.851Z,6.01
2019-03-15T02:02:17.491Z,5.94
2019-03-15T02:04:50.736Z,5.94
2019-03-15T02:07:22.875Z,5.93
2019-03-15T02:09:54.644Z,5.93
2019-03-15T02:12:26.528Z,5.95
2019-03-15T02:14:58.251Z,5.94
2019-03-15T02:17:31.642Z,5.97
2019-03-15T02:20:03.283Z,6.00
2019-03-15T02:22:35.037Z,6.06
2019-03-15T02:25:06.973Z,5.98
2019-03-15T02:27:38.665Z,5.97
2019-03-15T02:30:10.818Z,5.99
2019-03-15T02:32:42.556Z,5.94
2019-03-15T02:35:14.526Z,5.95
2019-03-15T02:37:46.747Z,5.87
2019-03-15T02:40:18.882Z,5.80
2019-03-15T02:42:53.146Z,5.77
2019-03-15T02:45:25.140Z,5.75
2019-03-15T02:47:57.012Z,5.67
2019-03-15T02:50:29.384Z,5.60
2019-03-15T02:53:01.359Z,5.57
2019-03-15T02:55:34.115Z,5.51
2019-03-15T02:58:06.336Z,5.49
2019-03-15T03:00:41.033Z,5.42
2019-03-15T03:03:13.101Z,5.38
2019-03-15T03:05:46.233Z,5.37
2019-03-15T03:08:18.259Z,5.29
2019-03-15T03:10:49.949Z,5.29
2019-03-15T03:13:22.856Z,5.22
2019-03-15T03:15:55.950Z,5.25
2019-03-15T03:18:28.133Z,5.26
2019-03-15T03:21:02.325Z,5.22
2019-03-15T03:23:34.993Z,5.22
2019-03-15T03:26:06.597Z,5.19
2019-03-15T03:28:38.483Z,5.12
2019-03-15T03:31:10.368Z,5.11
2019-03-15T03:33:42.630Z,5.07
2019-03-15T03:36:14.429Z,5.00
2019-03-15T03:38:46.163Z,5.02
2019-03-15T03:41:17.914Z,4.91
2019-03-15T03:43:50.247Z,4.91
2019-03-15T03:46:22.063Z,4.86
2019-03-15T03:48:53.894Z,4.90
2019-03-15T03:51:27.701Z,4.83
2019-03-15T03:53:59.776Z,4.73
2019-03-15T03:56:32.591Z,4.69
2019-03-15T03:59:04.472Z,4.56
2019-03-15T04:01:36.385Z,4.49
2019-03-15T04:04:08.200Z,4.40
2019-03-15T04:06:40.323Z,4.44
2019-03-15T04:09:13.251Z,4.44
2019-03-15T04:11:55.406Z,4.37
2019-03-15T04:14:22.192Z,4.23
2019-03-15T04:16:54.516Z,4.17
2019-03-15T04:19:26.991Z,4.13
2019-03-15T04:21:58.873Z,4.11
2019-03-15T04:24:30.845Z,4.08
2019-03-15T04:27:02.528Z,4.01
2019-03-15T04:29:34.552Z,3.95
2019-03-15T04:32:06.247Z,3.93
2019-03-15T04:34:39.114Z,3.90
2019-03-15T04:37:11.140Z,3.96
2019-03-15T04:39:42.798Z,3.87
2019-03-15T04:42:14.757Z,3.86
2019-03-15T04:44:47.869Z,3.83
2019-03-15T04:47:20.229Z,3.81
2019-03-15T04:49:52.113Z,3.82
2019-03-15T04:52:24.060Z,3.84
2019-03-15T04:54:55.849Z,3.82
2019-03-15T04:57:27.966Z,3.83
2019-03-15T04:59:59.692Z,3.79
2019-03-15T05:02:32.588Z,3.76
2019-03-15T05:05:04.868Z,3.80
2019-03-15T05:07:36.553Z,3.70
2019-03-15T05:10:08.835Z,3.69
2019-03-15T05:12:40.621Z,3.67
2019-03-15T05:15:12.594Z,3.67
2019-03-15T05:17:44.376Z,3.66
2019-03-15T05:20:20.974Z,3.68
2019-03-15T05:22:53.854Z,3.68
2019-03-15T05:25:25.531Z,3.69
2019-03-15T05:27:57.280Z,3.66
2019-03-15T05:30:29.013Z,3.69
2019-03-15T05:33:01.007Z,3.64
2019-03-15T05:35:32.954Z,3.64
2019-03-15T05:38:05.082Z,3.87
2019-03-15T05:40:36.696Z,3.68
2019-03-15T05:43:08.598Z,3.67
2019-03-15T05:45:40.595Z,3.67
2019-03-15T05:48:12.287Z,3.66
2019-03-15T05:50:43.942Z,3.66
2019-03-15T05:53:15.717Z,3.66
2019-03-15T05:55:48.873Z,3.68
2019-03-15T05:58:21.904Z,3.70
2019-03-15T06:00:54.134Z,3.68
2019-03-15T06:03:26.982Z,3.72
2019-03-15T06:05:58.886Z,3.93
2019-03-15T06:08:31.111Z,3.80
2019-03-15T06:11:03.069Z,3.83
2019-03-15T06:13:34.688Z,3.84
2019-03-15T06:16:06.487Z,3.85
2019-03-15T06:18:38.380Z,3.88
2019-03-15T06:21:10.568Z,3.89
2019-03-15T06:23:44.267Z,3.90
2019-03-15T06:26:16.859Z,3.93
2019-03-15T06:28:48.531Z,3.95
2019-03-15T06:31:20.544Z,3.95
2019-03-15T06:33:53.515Z,3.99
2019-03-15T06:36:25.395Z,4.00
2019-03-15T06:38:57.341Z,4.03
2019-03-15T06:41:29.012Z,4.09
2019-03-15T06:44:00.612Z,4.12
2019-03-15T06:46:32.169Z,4.20
2019-03-15T06:49:03.935Z,4.23
2019-03-15T06:51:35.703Z,4.30
2019-03-15T06:54:11.688Z,4.37
2019-03-15T06:56:41.312Z,4.45
2019-03-15T06:59:12.912Z,4.51
2019-03-15T07:01:44.990Z,4.51
2019-03-15T07:04:16.917Z,4.52
2019-03-15T07:06:48.632Z,4.50
2019-03-15T07:09:20.460Z,4.45
2019-03-15T07:11:52.225Z,4.45
2019-03-15T07:14:23.819Z,4.44
2019-03-15T07:16:55.820Z,4.51
2019-03-15T07:19:30.377Z,4.53
2019-03-15T07:22:00.952Z,4.52
2019-03-15T07:24:32.555Z,4.53
2019-03-15T07:27:12.778Z,4.55
2019-03-15T07:29:38.379Z,4.55
2019-03-15T07:32:10.140Z,4.49
2019-03-15T07:34:41.803Z,4.48
2019-03-15T07:37:13.469Z,4.43
2019-03-15T07:39:45.338Z,4.47
2019-03-15T07:42:17.247Z,4.43
2019-03-15T07:44:49.751Z,4.43
2019-03-15T07:47:21.585Z,4.49
2019-03-15T07:49:53.233Z,4.52
2019-03-15T07:52:24.926Z,4.55
2019-03-15T07:54:56.898Z,4.57
2019-03-15T07:57:28.636Z,4.64
2019-03-15T08:00:00.516Z,4.72
2019-03-15T08:02:32.336Z,4.80
2019-03-15T08:05:04.332Z,4.84
2019-03-15T08:07:42.062Z,4.96
2019-03-15T08:10:09.753Z,5.01
2019-03-15T08:12:41.823Z,5.15
2019-03-15T08:15:14.268Z,5.29
2019-03-15T08:17:46.000Z,5.29
2019-03-15T08:20:17.851Z,5.39
2019-03-15T08:22:49.596Z,5.41
2019-03-15T08:25:21.327Z,5.51
2019-03-15T08:27:53.036Z,5.62
2019-03-15T08:30:25.741Z,5.71
2019-03-15T08:33:09.473Z,5.67
2019-03-15T08:35:30.894Z,5.65
2019-03-15T08:38:05.315Z,5.67
2019-03-15T08:40:35.904Z,5.47
2019-03-15T08:43:07.586Z,5.29
2019-03-15T08:45:39.181Z,5.33
2019-03-15T08:48:11.055Z,5.37
2019-03-15T08:50:42.808Z,5.43
2019-03-15T08:53:14.722Z,5.48
2019-03-15T08:55:46.337Z,5.53
2019-03-15T08:58:21.775Z,5.61
2019-03-15T09:00:51.827Z,5.70
2019-03-15T09:03:28.234Z,5.70
2019-03-15T09:05:57.135Z,5.79
2019-03-15T09:08:29.333Z,5.94
2019-03-15T09:11:01.230Z,6.04
2019-03-15T09:13:34.595Z,6.07
2019-03-15T09:16:06.699Z,6.07
2019-03-15T09:18:38.438Z,6.06
2019-03-15T09:21:10.357Z,5.92
2019-03-15T09:23:42.547Z,5.85
2019-03-15T09:26:14.471Z,5.84
2019-03-15T09:28:46.689Z,5.94
2019-03-15T09:31:19.824Z,6.09
2019-03-15T09:33:51.452Z,6.19
2019-03-15T09:36:23.400Z,6.27
2019-03-15T09:38:55.534Z,6.49
2019-03-15T09:41:33.378Z,6.58
2019-03-15T09:44:02.765Z,6.65
2019-03-15T09:46:36.280Z,6.78
2019-03-15T09:49:08.229Z,6.78
2019-03-15T09:51:40.235Z,6.93
2019-03-15T09:54:12.022Z,6.93
2019-03-15T09:56:44.080Z,6.92
2019-03-15T09:59:19.162Z,6.87
2019-03-15T10:01:49.963Z,6.85
2019-03-15T10:04:21.786Z,6.98
2019-03-15T10:06:53.723Z,6.88
2019-03-15T10:09:25.537Z,6.93
2019-03-15T10:11:58.843Z,6.95
2019-03-15T10:14:30.965Z,7.09
2019-03-15T10:17:02.895Z,7.29
2019-03-15T10:19:34.931Z,7.23
2019-03-15T10:22:06.690Z,7.41
2019-03-15T10:24:38.855Z,7.40
2019-03-15T10:27:10.717Z,7.30
2019-03-15T10:29:44.232Z,7.34
2019-03-15T10:32:16.246Z,7.24
2019-03-15T10:34:48.660Z,7.15
2019-03-15T10:37:20.702Z,7.12
2019-03-15T10:39:52.387Z,6.86
2019-03-15T10:42:24.167Z,6.82
2019-03-15T10:44:56.352Z,6.85
2019-03-15T10:47:28.143Z,7.00
2019-03-15T10:50:00.693Z,6.55
2019-03-15T10:52:33.483Z,6.46
2019-03-15T10:55:06.325Z,6.60
2019-03-15T10:57:39.242Z,6.89
2019-03-15T11:00:12.897Z,6.82
2019-03-15T11:02:44.663Z,6.77
2019-03-15T11:05:17.144Z,6.90
2019-03-15T11:07:48.905Z,7.03
2019-03-15T11:10:20.855Z,7.30
2019-03-15T11:12:52.685Z,7.31
2019-03-15T11:15:24.383Z,7.31
2019-03-15T11:17:56.164Z,7.29
2019-03-15T11:20:28.050Z,7.00
2019-03-15T11:23:00.008Z,6.45
2019-03-15T11:25:31.836Z,6.11
2019-03-15T11:28:03.495Z,6.04
2019-03-15T11:30:35.219Z,5.89
2019-03-15T11:33:07.655Z,5.82
2019-03-15T11:35:39.359Z,5.48
2019-03-15T11:38:11.186Z,5.28
2019-03-15T11:40:44.554Z,5.01
2019-03-15T11:43:16.583Z,4.56
2019-03-15T11:45:48.731Z,4.39
2019-03-15T11:48:20.926Z,4.40
2019-03-15T11:50:52.979Z,4.49
2019-03-15T11:53:24.771Z,4.55
2019-03-15T11:55:57.047Z,4.55
2019-03-15T11:58:29.663Z,4.64
2019-03-15T12:01:01.532Z,4.77
2019-03-15T12:03:35.014Z,4.91
2019-03-15T12:06:07.138Z,5.09
2019-03-15T12:08:39.257Z,5.27
2019-03-15T12:11:11.352Z,5.68
2019-03-15T12:13:43.269Z,5.86
2019-03-15T12:16:15.072Z,5.96
2019-03-15T12:18:46.964Z,6.01
2019-03-15T12:21:18.734Z,6.08
2019-03-15T12:23:52.240Z,6.12
2019-03-15T12:26:39.467Z,6.17
2019-03-15T12:28:59.811Z,6.24
2019-03-15T12:31:31.489Z,6.29
2019-03-15T12:34:03.556Z,6.40
2019-03-15T12:36:35.385Z,6.51
2019-03-15T12:39:08.585Z,6.67
2019-03-15T12:41:40.651Z,6.97
2019-03-15T12:44:12.370Z,7.14
2019-03-15T12:46:44.747Z,7.01
2019-03-15T12:49:17.113Z,6.98
2019-03-15T12:51:49.319Z,7.01
2019-03-15T12:54:22.419Z,6.99
2019-03-15T12:56:54.357Z,7.08
2019-03-15T12:59:26.432Z,7.11
2019-03-15T13:01:59.391Z,7.21
2019-03-15T13:04:31.137Z,7.22
2019-03-15T13:07:03.045Z,7.29
2019-03-15T13:09:34.766Z,7.35
2019-03-15T13:12:06.368Z,7.60
2019-03-15T13:14:40.505Z,7.74
2019-03-15T13:17:14.025Z,7.68
2019-03-15T13:19:54.999Z,7.78
2019-03-15T13:22:20.044Z,7.63
2019-03-15T13:24:51.723Z,7.57
2019-03-15T13:27:23.511Z,7.49
2019-03-15T13:29:56.619Z,7.47
2019-03-15T13:32:28.496Z,7.50
2019-03-15T13:35:00.403Z,7.48
2019-03-15T13:37:32.020Z,7.51
2019-03-15T13:40:04.738Z,7.44
2019-03-15T13:42:36.444Z,7.42
2019-03-15T13:45:10.295Z,7.49
2019-03-15T13:47:43.705Z,7.56
2019-03-15T13:50:16.996Z,7.62
2019-03-15T13:52:49.863Z,7.62
2019-03-15T13:55:21.502Z,7.66
2019-03-15T13:57:53.320Z,7.76
2019-03-15T14:00:27.406Z,7.80
2019-03-15T14:02:59.278Z,7.87
2019-03-15T14:05:32.370Z,7.86
2019-03-15T14:08:11.718Z,7.93
2019-03-15T14:10:48.511Z,7.87
2019-03-15T14:13:12.240Z,7.92
2019-03-15T14:15:45.586Z,7.94
2019-03-15T14:18:17.826Z,7.96
2019-03-15T14:20:49.392Z,8.03
2019-03-15T14:23:22.103Z,8.11
2019-03-15T14:25:54.126Z,8.02
2019-03-15T14:28:25.835Z,8.16
2019-03-15T14:30:57.763Z,8.02
2019-03-15T14:33:30.320Z,8.17
2019-03-15T14:36:03.955Z,8.14
2019-03-15T14:38:35.548Z,8.15
2019-03-15T14:41:07.899Z,8.50
2019-03-15T14:43:41.008Z,8.57
2019-03-15T14:46:12.692Z,8.83
2019-03-15T14:48:44.499Z,8.79
2019-03-15T14:51:17.957Z,8.85
2019-03-15T14:53:49.863Z,8.79
2019-03-15T14:56:22.978Z,8.65
2019-03-15T14:58:55.991Z,8.50
2019-03-15T15:01:27.631Z,8.35
2019-03-15T15:03:59.464Z,8.23
2019-03-15T15:06:33.476Z,8.28
2019-03-15T15:09:07.499Z,8.22
2019-03-15T15:11:39.923Z,8.26
2019-03-15T15:14:11.686Z,8.31
2019-03-15T15:16:43.315Z,8.28
2019-03-15T15:19:14.950Z,8.38
2019-03-15T15:21:46.586Z,8.44
2019-03-15T15:24:18.290Z,8.73
2019-03-15T15:26:50.010Z,8.69
2019-03-15T15:29:22.213Z,8.56
2019-03-15T15:31:53.928Z,8.64
2019-03-15T15:34:25.481Z,8.52
2019-03-15T15:36:57.106Z,8.49
2019-03-15T15:39:28.926Z,8.52
2019-03-15T15:42:00.668Z,8.52
2019-03-15T15:44:32.392Z,8.50
2019-03-15T15:47:04.142Z,8.44
2019-03-15T15:49:36.131Z,8.35
2019-03-15T15:52:08.351Z,8.41
2019-03-15T15:54:41.451Z,8.37
2019-03-15T15:57:13.697Z,8.44
2019-03-15T15:59:46.024Z,8.48
2019-03-15T16:02:18.180Z,8.54
2019-03-15T16:04:50.351Z,8.51
2019-03-15T16:07:22.534Z,8.45
2019-03-15T16:09:55.561Z,8.45
2019-03-15T16:12:27.897Z,8.36
2019-03-15T16:14:59.554Z,8.38
2019-03-15T16:17:31.118Z,8.37
2019-03-15T16:20:02.876Z,8.33
2019-03-15T16:22:34.438Z,8.34
2019-03-15T16:25:06.156Z,8.37
2019-03-15T16:27:37.874Z,8.33
2019-03-15T16:30:13.342Z,8.31
2019-03-15T16:32:45.011Z,8.33
2019-03-15T16:35:16.839Z,8.27
2019-03-15T16:37:48.563Z,8.29
2019-03-15T16:40:20.437Z,8.30
2019-03-15T16:42:54.194Z,8.26
2019-03-15T16:45:29.279Z,8.27
2019-03-15T16:48:01.571Z,8.26
2019-03-15T16:50:33.428Z,8.23
2019-03-15T16:53:06.064Z,8.23
2019-03-15T16:55:37.866Z,8.17
2019-03-15T16:58:10.869Z,8.13
2019-03-15T17:00:43.026Z,8.09
2019-03-15T17:03:14.743Z,8.07
2019-03-15T17:05:46.691Z,8.02
2019-03-15T17:08:18.675Z,7.95
2019-03-15T17:10:50.443Z,7.96
2019-03-15T17:13:22.196Z,7.88
2019-03-15T17:15:54.370Z,7.78
2019-03-15T17:18:27.998Z,7.79
2019-03-15T17:21:00.477Z,7.72
2019-03-15T17:23:32.271Z,7.72
2019-03-15T17:26:04.375Z,7.63
2019-03-15T17:28:36.118Z,7.62
2019-03-15T17:31:09.996Z,7.60
2019-03-15T17:33:41.880Z,7.54
2019-03-15T17:36:14.151Z,7.53
2019-03-15T17:38:46.093Z,7.52
2019-03-15T17:41:17.891Z,7.49
2019-03-15T17:43:50.024Z,7.39
2019-03-15T17:46:22.016Z,7.41
2019-03-15T17:48:54.416Z,7.39
2019-03-15T17:51:26.338Z,7.36
2019-03-15T17:53:59.930Z,7.31
2019-03-15T17:56:31.702Z,7.30
2019-03-15T17:59:12.502Z,7.28
2019-03-15T18:01:38.161Z,7.22
2019-03-15T18:04:10.042Z,7.22
2019-03-15T18:06:42.423Z,7.22
2019-03-15T18:09:14.233Z,7.22
2019-03-15T18:11:46.236Z,7.19
2019-03-15T18:14:17.932Z,7.16
2019-03-15T18:16:49.983Z,7.18
2019-03-15T18:19:21.879Z,7.13
2019-03-15T18:21:53.656Z,7.13
2019-03-15T18:24:25.631Z,7.09
2019-03-15T18:26:57.305Z,7.11
2019-03-15T18:29:29.058Z,7.08
2019-03-15T18:32:00.717Z,7.11
2019-03-15T18:34:33.498Z,7.09
2019-03-15T18:37:06.043Z,7.09
2019-03-15T18:39:39.235Z,7.06
2019-03-15T18:42:12.853Z,7.07
2019-03-15T18:44:44.505Z,7.07
2019-03-15T18:47:16.826Z,7.08
2019-03-15T18:49:48.572Z,7.09
2019-03-15T18:52:20.361Z,7.10
2019-03-15T18:54:52.542Z,7.10
2019-03-15T18:57:24.305Z,7.08
2019-03-15T18:59:56.054Z,7.03
2019-03-15T19:02:27.748Z,7.04
2019-03-15T19:04:59.428Z,7.00
2019-03-15T19:07:31.146Z,7.01
2019-03-15T19:10:03.428Z,7.04
2019-03-15T19:12:35.164Z,7.03
2019-03-15T19:15:09.780Z,7.04
2019-03-15T19:17:41.660Z,7.05
2019-03-15T19:20:13.697Z,7.05
2019-03-15T19:22:45.591Z,7.07
2019-03-15T19:25:17.559Z,7.07
2019-03-15T19:27:49.402Z,7.08
2019-03-15T19:30:21.688Z,7.09
2019-03-15T19:32:55.642Z,7.09
2019-03-15T19:35:27.339Z,7.10
2019-03-15T19:37:59.033Z,7.12
2019-03-15T19:40:30.855Z,7.13
2019-03-15T19:43:02.933Z,7.14
2019-03-15T19:45:34.561Z,7.12
2019-03-15T19:48:06.321Z,7.20
2019-03-15T19:50:38.422Z,7.17
2019-03-15T19:53:10.192Z,7.16
2019-03-15T19:55:41.878Z,7.16
2019-03-15T19:58:13.743Z,7.16
2019-03-15T20:00:47.347Z,7.20
2019-03-15T20:03:19.055Z,7.16
2019-03-15T20:05:50.885Z,7.17
2019-03-15T20:08:22.613Z,7.16
2019-03-15T20:10:54.570Z,7.15
2019-03-15T20:13:27.632Z,7.09
2019-03-15T20:15:59.550Z,7.06
2019-03-15T20:18:31.207Z,7.00
2019-03-15T20:21:04.107Z,6.91
2019-03-15T20:23:36.198Z,6.86
2019-03-15T20:26:09.221Z,6.83
2019-03-15T20:28:41.180Z,6.75
2019-03-15T20:31:13.172Z,6.76
2019-03-15T20:33:46.969Z,6.72
2019-03-15T20:36:18.733Z,6.74
2019-03-15T20:38:50.751Z,6.77
2019-03-15T20:41:22.586Z,6.77
2019-03-15T20:43:54.410Z,6.78
2019-03-15T20:46:35.597Z,6.80
2019-03-15T20:48:59.626Z,6.79
2019-03-15T20:51:31.708Z,6.78
2019-03-15T20:54:03.850Z,6.80
2019-03-15T20:56:35.740Z,6.81
2019-03-15T20:59:07.605Z,6.81
2019-03-15T21:01:39.545Z,6.85
2019-03-15T21:04:11.586Z,6.78
2019-03-15T21:06:43.723Z,6.75
2019-03-15T21:09:15.552Z,6.74
2019-03-15T21:11:47.334Z,6.74
2019-03-15T21:14:19.224Z,6.72
2019-03-15T21:16:51.992Z,6.72
2019-03-15T21:19:24.071Z,6.71
2019-03-15T21:21:57.359Z,6.71
2019-03-15T21:24:29.149Z,6.71
2019-03-15T21:27:01.413Z,6.73
2019-03-15T21:29:33.147Z,6.72
2019-03-15T21:32:05.977Z,6.69
2019-03-15T21:34:38.355Z,6.69
2019-03-15T21:37:10.170Z,6.71
2019-03-15T21:39:42.164Z,6.73
2019-03-15T21:42:13.940Z,6.75
2019-03-15T21:44:45.649Z,6.73
2019-03-15T21:47:17.428Z,6.71
2019-03-15T21:49:49.270Z,6.77
2019-03-15T21:52:20.978Z,6.80
2019-03-15T21:54:53.151Z,6.82
2019-03-15T21:57:25.165Z,6.74
2019-03-15T21:59:57.077Z,6.75
2019-03-15T22:02:29.113Z,6.78
2019-03-15T22:05:01.104Z,6.80
2019-03-15T22:07:33.857Z,6.84
2019-03-15T22:10:06.489Z,6.82
2019-03-15T22:12:38.242Z,6.80
2019-03-15T22:15:11.220Z,6.83
2019-03-15T22:17:43.330Z,6.85
2019-03-15T22:20:15.314Z,6.74
2019-03-15T22:22:47.065Z,6.77
2019-03-15T22:25:19.191Z,6.70
2019-03-15T22:27:51.001Z,6.62
2019-03-15T22:30:23.178Z,6.63
2019-03-15T22:32:55.380Z,6.50
2019-03-15T22:35:27.090Z,6.47
2019-03-15T22:37:59.059Z,6.44
2019-03-15T22:40:31.308Z,6.40
2019-03-15T22:43:03.293Z,6.43
2019-03-15T22:45:35.452Z,6.42
2019-03-15T22:48:07.391Z,6.37
2019-03-15T22:50:39.072Z,6.39
2019-03-15T22:53:11.032Z,6.38
2019-03-15T22:55:43.798Z,6.41
2019-03-15T22:58:16.030Z,6.42
2019-03-15T23:00:49.307Z,6.38
2019-03-15T23:03:21.439Z,6.33
2019-03-15T23:05:53.721Z,6.39
2019-03-15T23:08:25.605Z,6.24
2019-03-15T23:10:57.796Z,6.21
2019-03-15T23:13:29.382Z,6.20
2019-03-15T23:16:01.351Z,6.17
2019-03-15T23:18:33.581Z,6.20
2019-03-15T23:21:06.297Z,6.21
2019-03-15T23:23:38.208Z,6.15
2019-03-15T23:26:10.534Z,6.07
2019-03-15T23:28:42.593Z,5.96
2019-03-15T23:31:14.396Z,5.91
2019-03-15T23:33:46.254Z,5.84
2019-03-15T23:36:17.910Z,5.73
2019-03-15T23:38:49.734Z,5.69
2019-03-15T23:41:21.679Z,5.65
2019-03-15T23:43:53.623Z,5.68
2019-03-15T23:46:25.311Z,5.58
2019-03-15T23:48:57.552Z,5.53
2019-03-15T23:51:29.267Z,5.55
2019-03-15T23:54:00.877Z,5.60
2019-03-15T23:56:32.559Z,5.73
2019-03-15T23:59:04.696Z,5.94
